Terminal Aerodrome Forecast
Issued by NWS Knoxville/Tri Cities, TN

Home | Current Version | Previous Version | Text Only | Print | Product List | Glossary On
Versions: 1 2 3 4 5 6 7 8 9 10 11 12 13 14 15 16 17 18 19 20 21 22 23 24 25 26
000
FTUS44 KMRX 292326
TAFTYS
TAF
KTYS 292326Z 3000/3024 VRB03KT P6SM VCSH SCT050 BKN150
     FM300400 00000KT P6SM BKN150
     FM301300 05005KT P6SM SCT050 BKN150
     FM301800 06005KT P6SM VCSH BKN050=

USA.gov is the U.S. government's official web portal to all federal, state and local government web resources and services.